Time;durP1;ratioP1;P1;durP2;ratioP2;P2;SDS_P1;SDS_P2;PMS_P1;PMS_P2;Temp;Humidity;BMP_temperature;BMP_pressure;BME280_temperature;BME280_humidity;BME280_pressure;Samples;Min_cycle;Max_cycle;Signal;HPM_P1;HPM_P2
2022/10/09 00:01:17;;;;;;;9.93;4.50;;;;;;;;;;5105132;27;20396;-71
2022/10/09 00:03:45;;;;;;;13.00;4.63;;;;;;;;;;5114294;27;20088;-71
2022/10/09 00:06:12;;;;;;;17.85;5.05;;;;;;;;;;5084766;27;20027;-71
2022/10/09 00:08:39;;;;;;;12.32;5.10;;;;;;;;;;5106537;28;20031;-71
2022/10/09 00:11:06;;;;;;;13.02;4.53;;;;;;;;;;5108527;28;20039;-71
2022/10/09 00:13:32;;;;;;;13.13;4.72;;;;;;;;;;5126504;27;20051;-71
2022/10/09 00:16:01;;;;;;;12.68;3.92;;;;;;;;;;5093567;27;20043;-70
2022/10/09 00:18:27;;;;;;;10.88;4.20;;;;;;;;;;5112749;27;20122;-76
2022/10/09 00:20:53;;;;;;;15.23;5.00;;;;;;;;;;5101278;27;20050;-76
2022/10/09 00:23:19;;;;;;;10.05;4.50;;;;;;;;;;5108907;28;20040;-75
2022/10/09 00:25:56;;;;;;;13.70;4.68;;;;;;;;;;5108582;27;20441;-75
2022/10/09 00:28:23;;;;;;;11.07;3.95;;;;;;;;;;5120598;27;20088;-75
2022/10/09 00:30:49;;;;;;;13.35;5.40;;;;;;;;;;5132776;27;20093;-75
2022/10/09 00:33:15;;;;;;;15.25;4.80;;;;;;;;;;5124966;28;20059;-75
2022/10/09 00:35:42;;;;;;;11.73;5.50;;;;;;;;;;5113426;27;20544;-75
2022/10/09 00:38:08;;;;;;;12.50;4.72;;;;;;;;;;5130756;27;20060;-75
2022/10/09 00:40:34;;;;;;;15.20;4.63;;;;;;;;;;5093549;28;20035;-71
2022/10/09 00:43:01;;;;;;;8.85;4.50;;;;;;;;;;5110181;28;20598;-71
2022/10/09 00:45:27;;;;;;;11.00;4.47;;;;;;;;;;5115939;27;20471;-71
2022/10/09 00:48:00;;;;;;;13.60;5.00;;;;;;;;;;5118479;27;20591;-71
2022/10/09 00:50:39;;;;;;;12.82;4.68;;;;;;;;;;5119916;27;20043;-71
2022/10/09 00:53:05;;;;;;;14.63;4.57;;;;;;;;;;5116797;27;20043;-71
2022/10/09 00:55:34;;;;;;;9.90;4.38;;;;;;;;;;5118041;27;20027;-71
2022/10/09 00:58:00;;;;;;;11.43;4.20;;;;;;;;;;5117621;27;20514;-71
2022/10/09 01:00:26;;;;;;;11.23;3.90;;;;;;;;;;5117777;27;20135;-71
2022/10/09 01:02:53;;;;;;;13.40;4.70;;;;;;;;;;5114903;27;20046;-71
2022/10/09 01:05:24;;;;;;;9.18;4.57;;;;;;;;;;5118311;27;20046;-72
2022/10/09 01:07:50;;;;;;;17.90;5.47;;;;;;;;;;5117978;27;20043;-71
2022/10/09 01:10:36;;;;;;;18.30;6.00;;;;;;;;;;5108890;27;20042;-72
2022/10/09 01:13:20;;;;;;;16.55;5.55;;;;;;;;;;5100359;27;20399;-72
2022/10/09 01:15:52;;;;;;;13.05;4.55;;;;;;;;;;5116041;27;20063;-71
2022/10/09 01:18:22;;;;;;;16.38;6.20;;;;;;;;;;5117270;27;20047;-71
2022/10/09 01:20:55;;;;;;;10.63;4.88;;;;;;;;;;5116481;27;20126;-71
2022/10/09 01:23:27;;;;;;;12.05;4.97;;;;;;;;;;5103740;28;20053;-72
2022/10/09 01:25:58;;;;;;;18.60;6.65;;;;;;;;;;5114857;27;20131;-71
2022/10/09 01:28:28;;;;;;;12.32;5.78;;;;;;;;;;5112597;28;20069;-71
2022/10/09 01:30:59;;;;;;;15.18;6.65;;;;;;;;;;5115759;28;20545;-71
2022/10/09 01:33:25;;;;;;;14.52;6.07;;;;;;;;;;5105973;27;20035;-71
2022/10/09 01:35:53;;;;;;;17.77;7.15;;;;;;;;;;5118052;27;20042;-71
2022/10/09 01:38:21;;;;;;;17.15;7.07;;;;;;;;;;5117039;27;20039;-71
2022/10/09 01:40:48;;;;;;;13.45;6.40;;;;;;;;;;5117681;27;20122;-71
2022/10/09 01:43:14;;;;;;;12.80;6.88;;;;;;;;;;5116065;27;20040;-72
2022/10/09 01:45:41;;;;;;;20.27;7.18;;;;;;;;;;5114518;27;20044;-72
2022/10/09 01:48:09;;;;;;;15.75;6.97;;;;;;;;;;5110629;27;20151;-71
2022/10/09 01:50:38;;;;;;;17.75;7.13;;;;;;;;;;5115880;27;20047;-72
2022/10/09 01:53:09;;;;;;;19.35;7.75;;;;;;;;;;5134254;27;20496;-72
2022/10/09 01:55:44;;;;;;;15.73;7.72;;;;;;;;;;5099005;27;20074;-72
2022/10/09 01:58:29;;;;;;;16.63;7.57;;;;;;;;;;5122886;27;20049;-72
2022/10/09 02:01:03;;;;;;;18.75;7.28;;;;;;;;;;5103058;27;20051;-72
2022/10/09 02:03:30;;;;;;;21.17;7.50;;;;;;;;;;5111047;27;20043;-72
2022/10/09 02:05:56;;;;;;;19.45;7.78;;;;;;;;;;5087057;27;20039;-72
2022/10/09 02:08:23;;;;;;;15.85;7.05;;;;;;;;;;5110745;27;20042;-72
2022/10/09 02:10:51;;;;;;;13.23;7.93;;;;;;;;;;5122828;27;20043;-72
2022/10/09 02:13:18;;;;;;;18.42;6.93;;;;;;;;;;5118097;27;20081;-72
2022/10/09 02:16:00;;;;;;;14.43;7.10;;;;;;;;;;5107464;28;20043;-76
2022/10/09 02:18:30;;;;;;;17.80;7.68;;;;;;;;;;5129207;27;20062;-76
2022/10/09 02:20:59;;;;;;;18.40;8.13;;;;;;;;;;5105778;28;20054;-76
2022/10/09 02:23:26;;;;;;;17.05;7.75;;;;;;;;;;5127649;27;20368;-76
2022/10/09 02:25:52;;;;;;;16.42;8.05;;;;;;;;;;5108139;28;20115;-76
2022/10/09 02:28:18;;;;;;;15.10;6.72;;;;;;;;;;5122970;27;20043;-76
2022/10/09 02:30:51;;;;;;;13.15;7.05;;;;;;;;;;5101468;28;20126;-76
2022/10/09 02:33:18;;;;;;;23.55;8.32;;;;;;;;;;5107343;27;20039;-76
2022/10/09 02:35:44;;;;;;;18.35;8.15;;;;;;;;;;5117144;27;20048;-76
2022/10/09 02:38:10;;;;;;;16.48;8.43;;;;;;;;;;5111828;27;20495;-76
2022/10/09 02:40:36;;;;;;;17.08;8.73;;;;;;;;;;5106799;28;20042;-76
2022/10/09 02:43:02;;;;;;;18.38;8.45;;;;;;;;;;5130281;27;20047;-75
2022/10/09 02:45:28;;;;;;;17.70;9.23;;;;;;;;;;5093936;28;20048;-76
2022/10/09 02:47:54;;;;;;;21.70;10.38;;;;;;;;;;5114179;27;20053;-76
2022/10/09 02:50:20;;;;;;;19.20;9.07;;;;;;;;;;5102820;27;20036;-76
2022/10/09 02:52:46;;;;;;;22.65;10.10;;;;;;;;;;5082469;28;20031;-76
2022/10/09 02:55:12;;;;;;;16.50;9.30;;;;;;;;;;5129678;27;20031;-76
2022/10/09 02:57:39;;;;;;;23.30;9.93;;;;;;;;;;5104623;27;20043;-76
2022/10/09 03:00:05;;;;;;;22.40;10.10;;;;;;;;;;5098323;27;20054;-76
2022/10/09 03:02:31;;;;;;;23.05;9.35;;;;;;;;;;5109500;28;20068;-76
2022/10/09 03:04:58;;;;;;;18.30;9.77;;;;;;;;;;5113866;27;20039;-76
2022/10/09 03:07:24;;;;;;;22.10;11.15;;;;;;;;;;5121942;27;20055;-76
2022/10/09 03:09:50;;;;;;;16.13;9.65;;;;;;;;;;5112381;27;20091;-76
2022/10/09 03:12:20;;;;;;;18.25;9.65;;;;;;;;;;5116426;27;20071;-76
2022/10/09 03:14:46;;;;;;;16.38;10.20;;;;;;;;;;5134804;27;20050;-76
2022/10/09 03:17:12;;;;;;;18.48;10.02;;;;;;;;;;5115901;27;20059;-76
2022/10/09 03:19:38;;;;;;;20.27;10.38;;;;;;;;;;5106326;28;20040;-75
2022/10/09 03:22:04;;;;;;;21.40;10.55;;;;;;;;;;5095985;28;20049;-76
2022/10/09 03:24:30;;;;;;;29.13;11.73;;;;;;;;;;5116110;27;20046;-76
2022/10/09 03:26:56;;;;;;;23.08;10.35;;;;;;;;;;5130818;27;20095;-76
2022/10/09 03:29:22;;;;;;;20.90;10.73;;;;;;;;;;5107406;27;20067;-76
2022/10/09 03:31:49;;;;;;;19.70;9.90;;;;;;;;;;5116426;27;20035;-76
2022/10/09 03:34:15;;;;;;;20.45;10.10;;;;;;;;;;5109668;27;20039;-76
2022/10/09 03:36:41;;;;;;;15.43;8.68;;;;;;;;;;5116555;27;20035;-76
2022/10/09 03:39:07;;;;;;;18.13;8.90;;;;;;;;;;5100670;27;20091;-72
2022/10/09 03:41:34;;;;;;;17.67;9.77;;;;;;;;;;5113382;27;20046;-73
2022/10/09 03:44:00;;;;;;;15.82;8.27;;;;;;;;;;5126500;27;20043;-72
2022/10/09 03:46:26;;;;;;;23.90;10.85;;;;;;;;;;5114164;27;20054;-75
2022/10/09 03:48:52;;;;;;;20.23;10.18;;;;;;;;;;5101476;27;20051;-72
2022/10/09 03:51:18;;;;;;;22.73;10.80;;;;;;;;;;5113227;27;20043;-73
2022/10/09 03:53:44;;;;;;;22.02;11.27;;;;;;;;;;5133271;27;20078;-73
2022/10/09 03:56:10;;;;;;;23.15;11.45;;;;;;;;;;5115062;27;20042;-73
2022/10/09 03:58:36;;;;;;;19.08;10.48;;;;;;;;;;5113306;27;20058;-72
2022/10/09 04:01:02;;;;;;;20.50;10.88;;;;;;;;;;5111738;27;20399;-73
2022/10/09 04:03:28;;;;;;;19.98;10.38;;;;;;;;;;5108101;28;20042;-75
2022/10/09 04:05:54;;;;;;;19.67;10.10;;;;;;;;;;5127594;27;20031;-76
2022/10/09 04:08:21;;;;;;;19.80;10.45;;;;;;;;;;5095286;28;20032;-75
2022/10/09 04:10:47;;;;;;;20.38;9.63;;;;;;;;;;5113051;27;20034;-76
2022/10/09 04:13:13;;;;;;;20.55;10.05;;;;;;;;;;5114972;27;20046;-73
2022/10/09 04:15:42;;;;;;;23.60;11.02;;;;;;;;;;5118487;27;20138;-73
2022/10/09 04:18:08;;;;;;;18.05;10.07;;;;;;;;;;5109427;27;20038;-73
2022/10/09 04:20:34;;;;;;;25.30;10.90;;;;;;;;;;5132383;27;20042;-73
2022/10/09 04:23:00;;;;;;;19.55;11.18;;;;;;;;;;5133010;27;20114;-73
2022/10/09 04:25:27;;;;;;;17.75;10.77;;;;;;;;;;5114449;27;20039;-73
2022/10/09 04:27:53;;;;;;;22.60;11.20;;;;;;;;;;5113985;27;20054;-73
2022/10/09 04:30:19;;;;;;;16.80;8.60;;;;;;;;;;5121727;28;20035;-72
2022/10/09 04:32:46;;;;;;;18.27;10.02;;;;;;;;;;5097065;28;20031;-73
2022/10/09 04:35:12;;;;;;;22.20;9.98;;;;;;;;;;5114796;28;20043;-76
2022/10/09 04:37:39;;;;;;;19.02;8.65;;;;;;;;;;5114928;28;20035;-76
2022/10/09 04:40:05;;;;;;;20.73;11.27;;;;;;;;;;5113614;28;20505;-76
2022/10/09 04:42:31;;;;;;;18.58;10.20;;;;;;;;;;5113371;28;20043;-73
2022/10/09 04:44:58;;;;;;;25.55;10.77;;;;;;;;;;5101228;28;20449;-73
2022/10/09 04:47:24;;;;;;;17.45;9.55;;;;;;;;;;5113901;28;20058;-73
2022/10/09 04:49:50;;;;;;;24.80;11.52;;;;;;;;;;5096400;28;20548;-73
2022/10/09 04:52:16;;;;;;;21.55;11.32;;;;;;;;;;5097611;28;20042;-73
2022/10/09 04:54:42;;;;;;;19.17;10.93;;;;;;;;;;5123949;27;20040;-73
2022/10/09 04:57:08;;;;;;;24.70;11.50;;;;;;;;;;5093987;28;20042;-73
2022/10/09 04:59:34;;;;;;;23.33;10.65;;;;;;;;;;5097198;28;20561;-73
2022/10/09 05:02:00;;;;;;;24.92;11.70;;;;;;;;;;5118412;27;20052;-73
2022/10/09 05:04:26;;;;;;;21.73;11.60;;;;;;;;;;5103082;28;20035;-73
2022/10/09 05:06:52;;;;;;;17.17;9.90;;;;;;;;;;5077183;28;20039;-73
2022/10/09 05:09:18;;;;;;;20.20;10.88;;;;;;;;;;5105945;28;20076;-73
2022/10/09 05:11:44;;;;;;;23.00;11.27;;;;;;;;;;5110287;28;20046;-73
2022/10/09 05:14:10;;;;;;;24.42;11.88;;;;;;;;;;5112509;28;20605;-73
2022/10/09 05:16:36;;;;;;;18.98;11.32;;;;;;;;;;5113232;28;20046;-73
2022/10/09 05:19:03;;;;;;;20.10;9.95;;;;;;;;;;5107188;28;20046;-73
2022/10/09 05:21:29;;;;;;;18.75;9.70;;;;;;;;;;5132608;28;20042;-73
2022/10/09 05:23:56;;;;;;;23.80;11.27;;;;;;;;;;5095408;28;20039;-73
2022/10/09 05:26:22;;;;;;;19.88;10.15;;;;;;;;;;5128759;27;20040;-73
2022/10/09 05:28:49;;;;;;;19.00;10.40;;;;;;;;;;5103711;28;20031;-73
2022/10/09 05:31:25;;;;;;;17.30;8.98;;;;;;;;;;5110605;27;20069;-73
2022/10/09 05:33:52;;;;;;;19.55;10.80;;;;;;;;;;5109910;27;20113;-73
2022/10/09 05:36:18;;;;;;;19.00;10.25;;;;;;;;;;5103355;27;20054;-74
2022/10/09 05:38:44;;;;;;;20.05;10.77;;;;;;;;;;5116587;27;20072;-74
2022/10/09 05:41:12;;;;;;;15.00;10.40;;;;;;;;;;5111131;27;20031;-73
2022/10/09 05:43:39;;;;;;;19.73;10.52;;;;;;;;;;5115654;27;20082;-73
2022/10/09 05:46:11;;;;;;;19.27;10.38;;;;;;;;;;5118969;27;20061;-73
2022/10/09 05:48:37;;;;;;;22.98;11.10;;;;;;;;;;5124222;27;20082;-76
2022/10/09 05:51:23;;;;;;;18.80;10.30;;;;;;;;;;5108682;27;20058;-76
2022/10/09 05:53:50;;;;;;;17.92;10.13;;;;;;;;;;5118110;27;20035;-74
2022/10/09 05:56:18;;;;;;;21.27;10.80;;;;;;;;;;5114297;27;20035;-74
2022/10/09 05:58:49;;;;;;;21.08;9.88;;;;;;;;;;5136215;27;20054;-76
2022/10/09 06:01:15;;;;;;;21.60;10.80;;;;;;;;;;5121845;27;20068;-74
2022/10/09 06:03:41;;;;;;;19.67;10.88;;;;;;;;;;5136159;27;20141;-75
2022/10/09 06:06:07;;;;;;;20.52;10.80;;;;;;;;;;5102011;27;20041;-76
2022/10/09 06:08:37;;;;;;;22.02;10.60;;;;;;;;;;5118305;27;20043;-76
2022/10/09 06:11:10;;;;;;;17.88;10.32;;;;;;;;;;5098325;28;20197;-76
2022/10/09 06:13:36;;;;;;;20.33;10.60;;;;;;;;;;5112271;27;20118;-76
2022/10/09 06:16:02;;;;;;;17.50;10.30;;;;;;;;;;5111108;28;20143;-76
2022/10/09 06:18:28;;;;;;;21.77;9.30;;;;;;;;;;5110446;27;20388;-76
2022/10/09 06:20:54;;;;;;;18.23;10.55;;;;;;;;;;5116434;27;20038;-77
2022/10/09 06:23:21;;;;;;;13.82;8.90;;;;;;;;;;5099943;27;20035;-77
2022/10/09 06:25:51;;;;;;;13.77;7.93;;;;;;;;;;5117204;27;20411;-74
2022/10/09 06:28:17;;;;;;;14.50;7.13;;;;;;;;;;5117158;27;20092;-74
2022/10/09 06:30:43;;;;;;;12.73;6.38;;;;;;;;;;5103495;28;20549;-73
2022/10/09 06:33:09;;;;;;;11.80;6.30;;;;;;;;;;5115921;27;20070;-74
2022/10/09 06:35:35;;;;;;;11.00;5.35;;;;;;;;;;5117073;27;20031;-74
2022/10/09 06:38:01;;;;;;;10.13;5.68;;;;;;;;;;5126800;27;20061;-78
2022/10/09 06:40:28;;;;;;;10.77;5.22;;;;;;;;;;5084000;28;20140;-76
2022/10/09 06:42:54;;;;;;;9.65;5.22;;;;;;;;;;5109357;27;20134;-76
2022/10/09 06:45:20;;;;;;;11.23;5.63;;;;;;;;;;5111090;28;20118;-77
2022/10/09 06:47:46;;;;;;;8.18;5.00;;;;;;;;;;5108125;27;20088;-76
2022/10/09 06:50:12;;;;;;;10.93;5.43;;;;;;;;;;5116443;27;20050;-77
2022/10/09 06:52:38;;;;;;;12.73;5.55;;;;;;;;;;5103260;27;20035;-77
2022/10/09 06:55:04;;;;;;;9.93;5.15;;;;;;;;;;5077601;27;20483;-77
2022/10/09 06:57:30;;;;;;;10.13;5.55;;;;;;;;;;5110795;27;20042;-77
2022/10/09 06:59:57;;;;;;;9.60;5.35;;;;;;;;;;5116930;27;20074;-77
2022/10/09 07:02:23;;;;;;;9.63;5.40;;;;;;;;;;5112473;27;20254;-77
2022/10/09 07:04:49;;;;;;;9.55;5.68;;;;;;;;;;5112547;27;20047;-77
2022/10/09 07:07:15;;;;;;;16.17;5.50;;;;;;;;;;5112461;27;20047;-77
2022/10/09 07:09:41;;;;;;;11.52;5.57;;;;;;;;;;5115010;27;20472;-77
2022/10/09 07:12:07;;;;;;;12.50;6.07;;;;;;;;;;5107101;27;20043;-77
2022/10/09 07:14:33;;;;;;;9.15;4.90;;;;;;;;;;5122181;27;20069;-74
2022/10/09 07:16:59;;;;;;;10.38;5.07;;;;;;;;;;5090117;27;20071;-73
2022/10/09 07:19:25;;;;;;;10.90;5.07;;;;;;;;;;5108200;27;20043;-73
2022/10/09 07:21:51;;;;;;;8.50;5.38;;;;;;;;;;5076504;28;20127;-74
2022/10/09 07:24:19;;;;;;;11.23;4.78;;;;;;;;;;5095546;28;20043;-74
2022/10/09 07:26:46;;;;;;;10.70;5.32;;;;;;;;;;5107382;27;20375;-74
2022/10/09 07:29:13;;;;;;;7.65;5.03;;;;;;;;;;5098306;27;20038;-74
2022/10/09 07:31:39;;;;;;;9.45;5.10;;;;;;;;;;5106257;27;20035;-74
2022/10/09 07:34:05;;;;;;;10.13;5.55;;;;;;;;;;5118629;27;20395;-78
2022/10/09 07:36:32;;;;;;;9.73;5.28;;;;;;;;;;5136453;27;20050;-77
2022/10/09 07:38:58;;;;;;;10.23;5.07;;;;;;;;;;5118491;27;20043;-74
2022/10/09 07:41:25;;;;;;;10.82;5.00;;;;;;;;;;5114343;27;20084;-74
2022/10/09 07:43:52;;;;;;;11.93;5.57;;;;;;;;;;5120344;27;20042;-73
2022/10/09 07:46:19;;;;;;;9.32;5.30;;;;;;;;;;5139914;27;20039;-74
2022/10/09 07:48:46;;;;;;;10.30;5.53;;;;;;;;;;5135750;27;20496;-73
2022/10/09 07:51:20;;;;;;;12.10;5.72;;;;;;;;;;5104874;27;20035;-74
2022/10/09 07:53:46;;;;;;;10.55;5.20;;;;;;;;;;5099840;27;20093;-74
2022/10/09 07:56:14;;;;;;;8.23;5.30;;;;;;;;;;5084367;27;20503;-74
2022/10/09 07:58:40;;;;;;;13.35;5.47;;;;;;;;;;5121673;27;20056;-75
2022/10/09 08:01:07;;;;;;;11.00;5.57;;;;;;;;;;5094462;28;20047;-74
2022/10/09 08:03:33;;;;;;;9.65;4.85;;;;;;;;;;5126685;27;20044;-78
2022/10/09 08:05:59;;;;;;;8.48;5.07;;;;;;;;;;5116047;27;20092;-78
2022/10/09 08:08:25;;;;;;;13.05;5.78;;;;;;;;;;5106103;27;20040;-78
2022/10/09 08:10:52;;;;;;;10.88;5.40;;;;;;;;;;5121791;27;20036;-73
2022/10/09 08:13:18;;;;;;;9.85;5.25;;;;;;;;;;5101296;28;20044;-73
2022/10/09 08:15:44;;;;;;;13.95;5.45;;;;;;;;;;5095021;28;20108;-73
2022/10/09 08:18:10;;;;;;;12.45;5.18;;;;;;;;;;5094082;28;20070;-73
2022/10/09 08:20:37;;;;;;;11.70;5.20;;;;;;;;;;5112523;27;20061;-78
2022/10/09 08:23:04;;;;;;;10.10;5.05;;;;;;;;;;5120637;27;20057;-78
2022/10/09 08:25:33;;;;;;;9.07;4.95;;;;;;;;;;5105685;28;20395;-78
2022/10/09 08:27:59;;;;;;;10.38;4.60;;;;;;;;;;5095702;28;20047;-78
2022/10/09 08:30:25;;;;;;;10.73;4.93;;;;;;;;;;5122453;27;20042;-79
2022/10/09 08:32:51;;;;;;;11.15;4.85;;;;;;;;;;5102767;28;20039;-79
2022/10/09 08:35:17;;;;;;;9.23;4.32;;;;;;;;;;5102409;28;20167;-77
2022/10/09 08:37:43;;;;;;;10.32;4.20;;;;;;;;;;5130980;27;20039;-77
2022/10/09 08:40:15;;;;;;;8.27;3.78;;;;;;;;;;5112107;27;20046;-77
2022/10/09 08:42:43;;;;;;;10.20;3.95;;;;;;;;;;5116818;28;20050;-78
2022/10/09 08:45:17;;;;;;;6.57;3.70;;;;;;;;;;5133292;28;20031;-71
2022/10/09 08:47:43;;;;;;;8.73;3.78;;;;;;;;;;5121192;28;20143;-72
2022/10/09 08:50:18;;;;;;;8.23;3.33;;;;;;;;;;5110894;28;20047;-72
2022/10/09 08:52:50;;;;;;;10.38;3.67;;;;;;;;;;5122674;28;20039;-72
2022/10/09 08:55:16;;;;;;;9.63;3.30;;;;;;;;;;5108312;28;20119;-72
2022/10/09 08:57:44;;;;;;;6.57;2.58;;;;;;;;;;5106481;28;20058;-78
2022/10/09 09:00:21;;;;;;;8.35;3.20;;;;;;;;;;5109146;28;20066;-79
2022/10/09 09:02:47;;;;;;;7.85;3.13;;;;;;;;;;5112510;28;20433;-79
2022/10/09 09:05:19;;;;;;;8.35;3.28;;;;;;;;;;5109348;28;20069;-78
2022/10/09 09:07:51;;;;;;;9.23;3.10;;;;;;;;;;5089956;27;20118;-79
2022/10/09 09:10:20;;;;;;;6.95;2.80;;;;;;;;;;5099321;28;20079;-78
2022/10/09 09:12:54;;;;;;;9.45;3.05;;;;;;;;;;5121797;27;20036;-79
2022/10/09 09:15:39;;;;;;;7.80;3.10;;;;;;;;;;5116165;28;20107;-80
2022/10/09 09:18:24;;;;;;;7.47;2.90;;;;;;;;;;5097078;28;20044;-80
2022/10/09 09:20:54;;;;;;;6.53;2.73;;;;;;;;;;5095740;27;20050;-81
2022/10/09 09:23:32;;;;;;;9.02;3.20;;;;;;;;;;5098557;28;20100;-80
2022/10/09 09:25:58;;;;;;;9.32;3.03;;;;;;;;;;5106308;28;20069;-79
2022/10/09 09:28:28;;;;;;;9.70;3.10;;;;;;;;;;5083832;28;20044;-80
2022/10/09 09:30:57;;;;;;;8.70;3.05;;;;;;;;;;5097739;28;20517;-79
2022/10/09 09:33:26;;;;;;;6.47;2.45;;;;;;;;;;5120863;27;20067;-79
2022/10/09 09:35:55;;;;;;;7.07;2.60;;;;;;;;;;5115934;28;20106;-79
2022/10/09 09:38:21;;;;;;;7.50;2.80;;;;;;;;;;5122573;27;20518;-79
2022/10/09 09:40:47;;;;;;;8.57;2.70;;;;;;;;;;5097809;28;20042;-79
2022/10/09 09:43:21;;;;;;;6.32;2.65;;;;;;;;;;5099673;27;20047;-78
2022/10/09 09:45:48;;;;;;;7.45;2.60;;;;;;;;;;5118474;27;20506;-79
2022/10/09 09:48:21;;;;;;;9.48;2.80;;;;;;;;;;5116982;27;20066;-78
2022/10/09 09:50:51;;;;;;;6.78;2.90;;;;;;;;;;5109290;28;20180;-78
2022/10/09 09:53:20;;;;;;;5.53;2.38;;;;;;;;;;5113195;27;20091;-79
2022/10/09 09:55:50;;;;;;;8.82;2.70;;;;;;;;;;5117883;27;20042;-79
2022/10/09 09:58:17;;;;;;;7.32;2.40;;;;;;;;;;5117503;27;20043;-79
2022/10/09 10:00:54;;;;;;;7.43;2.40;;;;;;;;;;5137036;27;20050;-71
2022/10/09 10:03:20;;;;;;;7.75;2.38;;;;;;;;;;5135299;27;20075;-74
2022/10/09 10:05:46;;;;;;;6.15;2.38;;;;;;;;;;5118224;27;20098;-75
2022/10/09 10:08:13;;;;;;;7.13;2.35;;;;;;;;;;5100610;27;20043;-75
2022/10/09 10:10:44;;;;;;;8.77;2.50;;;;;;;;;;5109464;27;20041;-73
2022/10/09 10:13:17;;;;;;;15.73;2.75;;;;;;;;;;5124682;27;20392;-66
2022/10/09 10:15:54;;;;;;;9.40;2.30;;;;;;;;;;5133313;27;20044;-73
2022/10/09 10:18:21;;;;;;;5.93;2.08;;;;;;;;;;5128048;27;20039;-72
2022/10/09 10:20:49;;;;;;;7.82;2.28;;;;;;;;;;5129056;27;20407;-73
2022/10/09 10:23:20;;;;;;;7.47;2.38;;;;;;;;;;5123889;27;20038;-73
2022/10/09 10:25:46;;;;;;;9.15;2.30;;;;;;;;;;5087399;28;20104;-73
2022/10/09 10:28:15;;;;;;;7.25;2.63;;;;;;;;;;5112007;27;20053;-72
2022/10/09 10:30:41;;;;;;;9.07;2.88;;;;;;;;;;5114981;27;20488;-68
2022/10/09 10:33:17;;;;;;;10.90;2.88;;;;;;;;;;5120415;27;20031;-69
2022/10/09 10:35:43;;;;;;;9.05;3.35;;;;;;;;;;5114758;28;20047;-69
2022/10/09 10:38:24;;;;;;;7.65;2.90;;;;;;;;;;5114296;28;20067;-67
2022/10/09 10:40:56;;;;;;;7.57;3.08;;;;;;;;;;5099041;27;20046;-70
2022/10/09 10:43:41;;;;;;;8.32;3.40;;;;;;;;;;5120385;27;20103;-74
2022/10/09 10:46:07;;;;;;;;;;;;;;;;;;5117398;27;20075;-75
2022/10/09 10:48:38;;;;;;;8.05;3.00;;;;;;;;;;5135492;27;19981;-76
2022/10/09 10:51:23;;;;;;;10.98;3.10;;;;;;;;;;5116947;27;20039;-77
2022/10/09 10:54:28;;;;;;;8.25;2.95;;;;;;;;;;5136526;27;20038;-80
2022/10/09 10:57:06;;;;;;;10.75;3.03;;;;;;;;;;5021807;28;20041;-80
2022/10/09 10:59:33;;;;;;;9.15;3.40;;;;;;;;;;5051183;28;20114;-80
2022/10/09 11:02:10;;;;;;;13.25;4.25;;;;;;;;;;5074347;27;20043;-81
2022/10/09 11:04:55;;;;;;;10.43;3.20;;;;;;;;;;5117663;27;20047;-80
2022/10/09 11:07:31;;;;;;;7.23;2.90;;;;;;;;;;5116353;27;20050;-77
2022/10/09 11:10:15;;;;;;;10.32;3.58;;;;;;;;;;5099170;27;20071;-79
2022/10/09 11:12:50;;;;;;;7.97;3.20;;;;;;;;;;5134707;27;20114;-76
2022/10/09 11:15:33;;;;;;;7.25;2.60;;;;;;;;;;5117612;27;20042;-73
2022/10/09 11:18:08;;;;;;;9.85;2.88;;;;;;;;;;5116060;27;20047;-73
2022/10/09 11:20:53;;;;;;;10.70;2.97;;;;;;;;;;5098452;27;20068;-73
2022/10/09 11:23:39;;;;;;;6.93;2.40;;;;;;;;;;5115222;27;20043;-73
2022/10/09 11:26:11;;;;;;;7.05;2.60;;;;;;;;;;5094150;27;20139;-74
2022/10/09 11:28:41;;;;;;;6.47;2.17;;;;;;;;;;5108522;28;20043;-73
2022/10/09 11:31:13;;;;;;;4.47;1.83;;;;;;;;;;5103313;27;20070;-75
2022/10/09 11:33:45;;;;;;;6.15;2.10;;;;;;;;;;5113912;27;20122;-73
2022/10/09 11:36:16;;;;;;;8.15;2.50;;;;;;;;;;5091048;27;20031;-73
2022/10/09 11:38:48;;;;;;;8.68;2.42;;;;;;;;;;5118510;27;20040;-73
2022/10/09 11:41:14;;;;;;;5.50;1.90;;;;;;;;;;5102403;27;20507;-73
2022/10/09 11:43:41;;;;;;;10.65;2.25;;;;;;;;;;5102327;27;20501;-73
2022/10/09 11:46:10;;;;;;;11.65;2.17;;;;;;;;;;5107315;27;20043;-73
2022/10/09 11:48:36;;;;;;;7.13;1.83;;;;;;;;;;5114881;27;20061;-73
2022/10/09 11:51:08;;;;;;;7.03;1.73;;;;;;;;;;5115240;27;20495;-72
2022/10/09 11:53:35;;;;;;;7.88;1.98;;;;;;;;;;5116957;27;20417;-71
2022/10/09 11:56:18;;;;;;;7.20;1.88;;;;;;;;;;5108877;27;20066;-72
2022/10/09 11:58:55;;;;;;;6.82;1.88;;;;;;;;;;5106045;28;20031;-71
2022/10/09 12:01:22;;;;;;;5.80;1.83;;;;;;;;;;5112520;28;20067;-70
2022/10/09 12:03:58;;;;;;;7.25;1.90;;;;;;;;;;5088833;27;20039;-72
2022/10/09 12:06:24;;;;;;;6.85;2.00;;;;;;;;;;5121707;27;20135;-70
2022/10/09 12:08:56;;;;;;;10.45;2.88;;;;;;;;;;5114708;27;20096;-69
2022/10/09 12:11:23;;;;;;;6.20;2.30;;;;;;;;;;5098352;28;20040;-72
2022/10/09 12:13:50;;;;;;;5.53;2.10;;;;;;;;;;5115458;27;20074;-71
2022/10/09 12:16:35;;;;;;;9.52;2.50;;;;;;;;;;5112738;27;20069;-71
2022/10/09 12:19:03;;;;;;;10.68;2.47;;;;;;;;;;5099349;28;20446;-71
2022/10/09 12:21:36;;;;;;;10.05;2.60;;;;;;;;;;5112193;28;20067;-71
2022/10/09 12:24:02;;;;;;;7.05;2.05;;;;;;;;;;5105242;28;20058;-70
2022/10/09 12:26:29;;;;;;;7.60;2.55;;;;;;;;;;5120484;27;20034;-70
2022/10/09 12:28:57;;;;;;;7.25;2.50;;;;;;;;;;5093476;28;20043;-77
2022/10/09 12:31:42;;;;;;;8.75;2.28;;;;;;;;;;5128044;27;20046;-77
2022/10/09 12:34:25;;;;;;;10.00;2.45;;;;;;;;;;5094904;28;20058;-78
2022/10/09 12:36:51;;;;;;;7.72;2.53;;;;;;;;;;5094592;28;20040;-78
2022/10/09 12:39:21;;;;;;;6.75;2.58;;;;;;;;;;5109139;28;20075;-79
2022/10/09 12:41:52;;;;;;;9.18;2.72;;;;;;;;;;5127474;27;20073;-77
2022/10/09 12:44:28;;;;;;;9.93;2.38;;;;;;;;;;5120314;27;20432;-79
2022/10/09 12:46:54;;;;;;;8.90;2.80;;;;;;;;;;5137301;27;20069;-78
2022/10/09 12:49:23;;;;;;;7.03;2.67;;;;;;;;;;5119080;27;20521;-77
2022/10/09 12:51:54;;;;;;;8.45;2.50;;;;;;;;;;5101431;27;20031;-77
2022/10/09 12:54:20;;;;;;;8.70;2.60;;;;;;;;;;5131521;27;20039;-77
2022/10/09 12:56:47;;;;;;;7.78;2.75;;;;;;;;;;5120954;27;20036;-78
2022/10/09 12:59:13;;;;;;;8.82;2.67;;;;;;;;;;5110579;27;20039;-78
2022/10/09 13:01:40;;;;;;;9.95;2.67;;;;;;;;;;5095436;27;20059;-78
2022/10/09 13:04:08;;;;;;;8.30;2.70;;;;;;;;;;5112277;28;20046;-77
2022/10/09 13:06:46;;;;;;;9.85;2.78;;;;;;;;;;5100935;27;20085;-77
2022/10/09 13:09:23;;;;;;;7.95;2.65;;;;;;;;;;5103624;27;20067;-78
2022/10/09 13:12:12;;;;;;;6.63;3.00;;;;;;;;;;5115545;28;20472;-75
2022/10/09 13:14:43;;;;;;;9.18;2.78;;;;;;;;;;5090826;28;20493;-75
2022/10/09 13:17:39;;;;;;;7.45;2.72;;;;;;;;;;5107402;27;20492;-76
2022/10/09 13:20:11;;;;;;;6.37;2.50;;;;;;;;;;5102724;27;20495;-79
2022/10/09 13:22:37;;;;;;;9.85;3.28;;;;;;;;;;5100218;28;20507;-78
2022/10/09 13:25:03;;;;;;;9.65;3.05;;;;;;;;;;5098594;28;20043;-78
2022/10/09 13:27:34;;;;;;;7.15;3.28;;;;;;;;;;5125724;27;20388;-78
2022/10/09 13:30:00;;;;;;;14.13;3.42;;;;;;;;;;5119155;27;20103;-79
2022/10/09 13:32:27;;;;;;;8.27;2.97;;;;;;;;;;5101285;27;20035;-68
2022/10/09 13:34:54;;;;;;;7.30;3.17;;;;;;;;;;5124643;27;20042;-73
2022/10/09 13:37:22;;;;;;;10.10;3.35;;;;;;;;;;5128597;27;20035;-69
2022/10/09 13:39:52;;;;;;;7.88;3.38;;;;;;;;;;5099972;27;20051;-69
2022/10/09 13:42:18;;;;;;;8.38;3.20;;;;;;;;;;5104868;28;20050;-69
2022/10/09 13:44:45;;;;;;;8.90;3.03;;;;;;;;;;5111934;27;20039;-69
2022/10/09 13:47:11;;;;;;;9.18;3.15;;;;;;;;;;5136801;27;20376;-72
2022/10/09 13:49:37;;;;;;;8.07;3.03;;;;;;;;;;5118033;27;20515;-71
2022/10/09 13:52:03;;;;;;;13.52;3.55;;;;;;;;;;5136366;27;20034;-73
2022/10/09 13:54:29;;;;;;;21.30;4.15;;;;;;;;;;5119172;27;20169;-71
2022/10/09 13:56:56;;;;;;;9.13;3.13;;;;;;;;;;5116826;27;20069;-68
2022/10/09 13:59:23;;;;;;;10.98;3.40;;;;;;;;;;5122895;27;20035;-77
2022/10/09 14:01:50;;;;;;;9.52;3.22;;;;;;;;;;5128281;27;20074;-77
2022/10/09 14:04:17;;;;;;;8.55;3.67;;;;;;;;;;5135607;27;20479;-77
2022/10/09 14:06:43;;;;;;;10.15;3.28;;;;;;;;;;5135419;27;20027;-76
2022/10/09 14:09:09;;;;;;;8.88;4.28;;;;;;;;;;5135056;27;20039;-76
2022/10/09 14:11:35;;;;;;;11.20;3.08;;;;;;;;;;5117176;27;20083;-76
2022/10/09 14:14:01;;;;;;;11.15;3.38;;;;;;;;;;5113296;28;20039;-76
2022/10/09 14:16:28;;;;;;;10.02;3.50;;;;;;;;;;5125507;27;20039;-77
2022/10/09 14:18:59;;;;;;;10.85;3.55;;;;;;;;;;5118640;27;20384;-77
2022/10/09 14:21:25;;;;;;;8.93;3.22;;;;;;;;;;5134728;27;20070;-76
2022/10/09 14:23:58;;;;;;;12.18;3.13;;;;;;;;;;5097807;27;20093;-76
2022/10/09 14:26:25;;;;;;;8.07;2.80;;;;;;;;;;5115291;28;20040;-76
2022/10/09 14:28:52;;;;;;;9.00;3.15;;;;;;;;;;5127343;27;20043;-76
2022/10/09 14:31:18;;;;;;;8.95;3.63;;;;;;;;;;5115096;27;20044;-75
2022/10/09 14:33:44;;;;;;;7.25;2.72;;;;;;;;;;5132575;27;20043;-76
2022/10/09 14:36:17;;;;;;;7.93;2.80;;;;;;;;;;5119419;27;20074;-75
2022/10/09 14:38:43;;;;;;;8.10;2.90;;;;;;;;;;5140826;27;20042;-76
2022/10/09 14:41:12;;;;;;;8.52;3.20;;;;;;;;;;5118242;27;20032;-76
2022/10/09 14:43:38;;;;;;;7.45;2.80;;;;;;;;;;5116439;27;20067;-75